Time;durP1;ratioP1;P1;durP2;ratioP2;P2;SDS_P1;SDS_P2;PMS_P1;PMS_P2;Temp;Humidity;BMP_temperature;BMP_pressure;BME280_temperature;BME280_humidity;BME280_pressure;Samples;Min_cycle;Max_cycle;Signal;HPM_P1;HPM_P2
2023/07/14 00:01:39;;;;;;;27.17;7.03;;;20.90;99.90;;;;;;4177888;28;20091;-62
2023/07/14 00:03:40;;;;;;;14.95;7.07;;;20.90;99.90;;;;;;4179373;28;20041;-62
2023/07/14 00:05:41;;;;;;;8.73;4.50;;;20.90;99.90;;;;;;4178504;28;20032;-62
2023/07/14 00:07:42;;;;;;;7.03;3.55;;;20.90;99.90;;;;;;4161433;28;20049;-62
2023/07/14 00:09:44;;;;;;;6.57;3.30;;;20.90;99.90;;;;;;4178378;28;20465;-61
2023/07/14 00:11:45;;;;;;;4.20;2.45;;;20.80;99.90;;;;;;4178952;28;20098;-62
2023/07/14 00:13:51;;;;;;;2.75;2.33;;;20.80;99.90;;;;;;4178135;28;20173;-61
2023/07/14 00:15:52;;;;;;;5.57;2.88;;;20.80;99.90;;;;;;4179336;28;20420;-61
2023/07/14 00:18:01;;;;;;;4.68;2.95;;;20.70;99.90;;;;;;4177490;28;20079;-61
2023/07/14 00:20:16;;;;;;;5.37;2.83;;;20.80;99.90;;;;;;4178460;28;20041;-60
2023/07/14 00:22:17;;;;;;;3.70;2.65;;;20.80;99.90;;;;;;4178512;28;20657;-62
2023/07/14 00:24:20;;;;;;;8.50;3.45;;;20.70;99.90;;;;;;4178984;28;20075;-61
2023/07/14 00:26:22;;;;;;;5.28;3.05;;;20.70;99.90;;;;;;4177444;28;20033;-61
2023/07/14 00:28:23;;;;;;;3.75;2.67;;;20.60;99.90;;;;;;4178342;28;20448;-62
2023/07/14 00:30:25;;;;;;;4.22;2.65;;;20.60;99.90;;;;;;4177832;28;20033;-61
2023/07/14 00:32:26;;;;;;;2.38;2.17;;;20.60;99.90;;;;;;4177872;28;20037;-62
2023/07/14 00:34:27;;;;;;;3.08;2.38;;;20.60;99.90;;;;;;4178565;28;20053;-63
2023/07/14 00:36:28;;;;;;;8.52;3.00;;;20.50;99.90;;;;;;4177963;28;20060;-62
2023/07/14 00:38:30;;;;;;;7.07;2.70;;;20.60;99.90;;;;;;4178608;28;20056;-62
2023/07/14 00:40:47;;;;;;;3.88;2.83;;;20.50;99.90;;;;;;4177954;28;20032;-62
2023/07/14 00:42:53;;;;;;;2.63;2.40;;;20.50;99.90;;;;;;4177675;28;20036;-62
2023/07/14 00:44:55;;;;;;;9.20;4.10;;;20.50;99.90;;;;;;4177560;28;20455;-62
2023/07/14 00:46:57;;;;;;;8.32;4.00;;;20.40;99.90;;;;;;4178818;28;20102;-63
2023/07/14 00:49:01;;;;;;;8.82;4.03;;;20.40;99.90;;;;;;4177714;28;20110;-62
2023/07/14 00:51:12;;;;;;;11.80;3.53;;;20.40;99.90;;;;;;4178248;28;20552;-62
2023/07/14 00:53:20;;;;;;;9.10;4.47;;;20.30;99.90;;;;;;4177994;28;20587;-62
2023/07/14 00:55:28;;;;;;;8.55;5.15;;;20.30;99.90;;;;;;4178330;28;20110;-62
2023/07/14 00:57:30;;;;;;;6.57;4.70;;;20.30;99.90;;;;;;4176555;28;20051;-62
2023/07/14 00:59:33;;;;;;;6.30;3.22;;;20.30;99.90;;;;;;4160542;28;20121;-62
2023/07/14 01:01:34;;;;;;;5.30;2.80;;;20.30;99.90;;;;;;4177491;28;20033;-62
2023/07/14 01:03:39;;;;;;;3.05;2.60;;;20.30;99.90;;;;;;4178350;28;20032;-62
2023/07/14 01:05:41;;;;;;;3.10;2.40;;;20.30;99.90;;;;;;4176305;28;20481;-61
2023/07/14 01:07:44;;;;;;;5.32;2.58;;;20.30;99.90;;;;;;4177804;28;20049;-62
2023/07/14 01:09:47;;;;;;;4.18;2.35;;;20.30;99.90;;;;;;4177444;28;20017;-62
2023/07/14 01:11:54;;;;;;;5.95;2.90;;;20.20;99.90;;;;;;4177546;28;20414;-63
2023/07/14 01:13:58;;;;;;;3.45;2.63;;;20.20;99.90;;;;;;4177668;28;20083;-62
2023/07/14 01:15:59;;;;;;;2.50;2.30;;;20.20;99.90;;;;;;4176977;28;20033;-63
2023/07/14 01:18:01;;;;;;;4.35;2.47;;;20.20;99.90;;;;;;4177621;28;20461;-62
2023/07/14 01:20:08;;;;;;;3.35;2.35;;;20.10;99.90;;;;;;4176949;28;20202;-63
2023/07/14 01:22:12;;;;;;;4.93;2.40;;;20.10;99.90;;;;;;4178127;28;20021;-62
2023/07/14 01:24:23;;;;;;;3.40;2.20;;;20.10;99.90;;;;;;4177532;28;20082;-62
2023/07/14 01:26:45;;;;;;;5.40;2.58;;;20.20;99.90;;;;;;4159526;28;20450;-62
2023/07/14 01:28:47;;;;;;;6.00;2.35;;;20.20;99.90;;;;;;4177567;28;20078;-63
2023/07/14 01:30:48;;;;;;;2.20;2.00;;;20.20;99.90;;;;;;4177192;28;20025;-62
2023/07/14 01:32:50;;;;;;;2.95;2.20;;;20.10;99.90;;;;;;4176497;28;20527;-62
2023/07/14 01:34:51;;;;;;;11.27;3.03;;;20.10;99.90;;;;;;4177837;28;20110;-62
2023/07/14 01:36:58;;;;;;;5.28;2.47;;;20.20;99.90;;;;;;4176604;28;20106;-63
2023/07/14 01:38:59;;;;;;;5.65;2.97;;;20.30;99.90;;;;;;4177095;28;20583;-63
2023/07/14 01:41:04;;;;;;;9.63;2.92;;;20.30;99.90;;;;;;4176310;28;20116;-62
2023/07/14 01:43:06;;;;;;;7.13;2.95;;;20.30;99.90;;;;;;4177910;28;20025;-62
2023/07/14 01:45:18;;;;;;;4.03;2.45;;;20.30;99.90;;;;;;4176848;28;20154;-62
2023/07/14 01:47:20;;;;;;;3.65;2.08;;;20.20;99.90;;;;;;4177705;28;20102;-62
2023/07/14 01:49:40;;;;;;;4.07;2.33;;;20.20;99.90;;;;;;4176640;28;20427;-62
2023/07/14 01:51:43;;;;;;;3.83;2.08;;;20.10;99.90;;;;;;4177910;28;20463;-63
2023/07/14 01:53:52;;;;;;;2.50;2.30;;;20.10;99.90;;;;;;4176956;28;20826;-63
2023/07/14 01:55:56;;;;;;;3.30;2.30;;;20.10;99.90;;;;;;4177097;28;20071;-63
2023/07/14 01:57:59;;;;;;;3.40;2.05;;;20.10;99.90;;;;;;4176116;28;20083;-73
2023/07/14 02:00:11;;;;;;;4.95;2.63;;;20.10;99.90;;;;;;4177318;28;20033;-65
2023/07/14 02:02:34;;;;;;;1.98;1.88;;;20.10;99.90;;;;;;4158729;28;20049;-73
2023/07/14 02:04:39;;;;;;;2.60;2.25;;;20.10;99.90;;;;;;4177797;28;20076;-67
2023/07/14 02:06:40;;;;;;;2.40;2.20;;;20.10;99.90;;;;;;4176114;28;20106;-62
2023/07/14 02:08:44;;;;;;;3.47;2.30;;;20.20;99.90;;;;;;4177417;28;20032;-62
2023/07/14 02:10:46;;;;;;;2.78;2.15;;;20.20;99.90;;;;;;4175897;28;20033;-62
2023/07/14 02:12:49;;;;;;;4.68;2.00;;;20.20;99.90;;;;;;4159604;28;20045;-63
2023/07/14 02:15:00;;;;;;;2.78;2.45;;;20.10;99.90;;;;;;4176391;28;20032;-62
2023/07/14 02:17:05;;;;;;;5.95;2.75;;;20.10;99.90;;;;;;4177056;28;20041;-64
2023/07/14 02:19:14;;;;;;;2.53;2.28;;;20.20;99.90;;;;;;4176299;28;20109;-66
2023/07/14 02:21:22;;;;;;;3.33;2.15;;;20.20;99.90;;;;;;4177509;28;20025;-62
2023/07/14 02:23:26;;;;;;;3.20;2.58;;;20.20;99.90;;;;;;4176436;28;20091;-62
2023/07/14 02:25:40;;;;;;;5.68;2.33;;;20.20;99.90;;;;;;4177007;28;20429;-62
2023/07/14 02:27:42;;;;;;;2.65;2.08;;;20.20;99.90;;;;;;4175331;28;20091;-62
2023/07/14 02:29:43;;;;;;;2.65;2.17;;;20.20;99.90;;;;;;4176548;28;20094;-62
2023/07/14 02:31:51;;;;;;;2.92;2.38;;;20.20;99.90;;;;;;4176612;28;20029;-61
2023/07/14 02:33:53;;;;;;;3.50;2.47;;;20.20;99.90;;;;;;4176477;28;20396;-62
2023/07/14 02:36:02;;;;;;;2.90;2.03;;;20.10;99.90;;;;;;4176312;28;20037;-62
2023/07/14 02:38:11;;;;;;;4.93;3.10;;;20.10;99.90;;;;;;4176782;28;20067;-61
2023/07/14 02:40:13;;;;;;;4.53;2.50;;;20.10;99.90;;;;;;4158674;28;20103;-60
2023/07/14 02:42:14;;;;;;;3.83;2.90;;;20.10;99.90;;;;;;4176204;28;20063;-61
2023/07/14 02:44:17;;;;;;;2.83;2.30;;;20.10;99.90;;;;;;4176939;28;20481;-62
2023/07/14 02:46:52;;;;;;;3.08;2.72;;;20.10;99.90;;;;;;4175574;28;20330;-61
2023/07/14 02:48:53;;;;;;;3.58;2.53;;;20.10;99.90;;;;;;4155795;28;20033;-61
2023/07/14 02:50:55;;;;;;;4.53;2.60;;;20.20;99.90;;;;;;4176555;28;20535;-62
2023/07/14 02:52:56;;;;;;;3.30;2.30;;;20.20;99.90;;;;;;4158745;28;20111;-62
2023/07/14 02:54:57;;;;;;;4.22;2.22;;;20.30;99.90;;;;;;4176597;28;20150;-62
2023/07/14 02:56:59;;;;;;;3.97;2.30;;;20.30;99.90;;;;;;4177154;28;20029;-62
2023/07/14 02:59:01;;;;;;;4.43;2.15;;;20.40;99.90;;;;;;4175542;28;20465;-61
2023/07/14 03:01:03;;;;;;;2.65;2.22;;;20.50;99.90;;;;;;4176954;28;20079;-62
2023/07/14 03:03:04;;;;;;;2.72;2.35;;;20.60;99.90;;;;;;4176039;28;20431;-65
2023/07/14 03:05:06;;;;;;;3.88;2.50;;;20.60;99.90;;;;;;4158760;28;20045;-61
2023/07/14 03:07:07;;;;;;;6.80;2.13;;;20.80;99.90;;;;;;4161249;28;20449;-63
2023/07/14 03:09:08;;;;;;;4.22;2.10;;;20.90;99.90;;;;;;4180381;28;20037;-63
2023/07/14 03:11:10;;;;;;;3.22;2.30;;;21.00;99.90;;;;;;4179039;28;20489;-62
2023/07/14 03:13:13;;;;;;;6.15;2.30;;;20.90;99.90;;;;;;4180221;28;20408;-60
2023/07/14 03:15:14;;;;;;;6.50;2.08;;;20.90;99.90;;;;;;4177956;28;20037;-62
2023/07/14 03:17:15;;;;;;;2.92;2.50;;;20.90;99.90;;;;;;4179832;28;20079;-62
2023/07/14 03:19:17;;;;;;;4.85;2.03;;;20.80;99.90;;;;;;4179089;28;20394;-61
2023/07/14 03:21:18;;;;;;;4.13;2.25;;;20.70;99.90;;;;;;4179549;28;20025;-61
2023/07/14 03:23:19;;;;;;;3.95;2.63;;;20.80;99.90;;;;;;4179553;28;20473;-61
2023/07/14 03:25:20;;;;;;;2.35;2.10;;;20.80;99.90;;;;;;4179161;28;20079;-61
2023/07/14 03:27:22;;;;;;;2.42;2.08;;;20.80;99.90;;;;;;4180016;28;20446;-62
2023/07/14 03:29:23;;;;;;;2.05;1.90;;;20.80;99.90;;;;;;4178980;28;20036;-62
2023/07/14 03:31:24;;;;;;;2.97;2.08;;;20.70;99.90;;;;;;4179756;28;20033;-61
2023/07/14 03:33:25;;;;;;;2.78;2.10;;;20.70;99.90;;;;;;4178335;28;20029;-61
2023/07/14 03:35:26;;;;;;;2.83;2.17;;;20.70;99.90;;;;;;4178197;28;20032;-62
2023/07/14 03:37:27;;;;;;;2.58;1.85;;;20.70;99.90;;;;;;4178770;28;20037;-62
2023/07/14 03:39:30;;;;;;;3.88;2.08;;;20.70;99.90;;;;;;4179153;28;20071;-62
2023/07/14 03:41:31;;;;;;;2.53;1.85;;;20.70;99.90;;;;;;4169013;28;20980;-62
2023/07/14 03:43:32;;;;;;;2.70;2.00;;;20.70;99.90;;;;;;4172062;28;20162;-62
2023/07/14 03:45:34;;;;;;;4.45;2.20;;;20.70;99.90;;;;;;4178701;28;20032;-62
2023/07/14 03:47:39;;;;;;;3.10;2.20;;;20.70;99.90;;;;;;4179386;28;20742;-63
2023/07/14 03:49:40;;;;;;;3.42;2.35;;;20.70;99.90;;;;;;4178042;28;20033;-62
2023/07/14 03:51:42;;;;;;;2.30;2.10;;;20.60;99.90;;;;;;4177828;28;20075;-62
2023/07/14 03:53:44;;;;;;;3.60;2.28;;;20.60;99.90;;;;;;4177875;28;20535;-62
2023/07/14 03:55:47;;;;;;;3.83;2.28;;;20.60;99.90;;;;;;4177488;28;20477;-62
2023/07/14 03:57:48;;;;;;;3.90;3.20;;;20.50;99.90;;;;;;4177197;28;20118;-62
2023/07/14 03:59:49;;;;;;;4.68;2.67;;;20.50;99.90;;;;;;4177291;28;20087;-62
2023/07/14 04:01:50;;;;;;;4.25;2.33;;;20.50;99.90;;;;;;4179774;28;20469;-62
2023/07/14 04:03:52;;;;;;;3.00;2.30;;;20.50;99.90;;;;;;4166792;28;20094;-62
2023/07/14 04:05:53;;;;;;;4.43;1.75;;;20.50;99.90;;;;;;4166806;28;20053;-62
2023/07/14 04:07:54;;;;;;;5.05;2.70;;;20.40;99.90;;;;;;4177501;28;20037;-62
2023/07/14 04:09:55;;;;;;;3.97;2.53;;;20.50;99.90;;;;;;4178054;28;20045;-62
2023/07/14 04:11:56;;;;;;;8.50;2.35;;;20.50;99.90;;;;;;4177985;28;20033;-63
2023/07/14 04:13:57;;;;;;;8.00;2.55;;;20.50;99.90;;;;;;4178536;28;20025;-62
2023/07/14 04:15:59;;;;;;;4.53;2.17;;;20.50;99.90;;;;;;4176972;28;20440;-61
2023/07/14 04:18:00;;;;;;;4.43;2.40;;;20.50;99.90;;;;;;4178025;28;20021;-62
2023/07/14 04:20:01;;;;;;;4.07;1.92;;;20.60;99.90;;;;;;4178034;28;20045;-61
2023/07/14 04:22:02;;;;;;;3.13;2.28;;;20.60;99.90;;;;;;4176105;28;20076;-63
2023/07/14 04:24:03;;;;;;;3.42;2.55;;;20.60;99.90;;;;;;4162144;28;20029;-63
2023/07/14 04:26:11;;;;;;;4.55;2.28;;;20.70;99.90;;;;;;4166755;28;20560;-64
2023/07/14 04:28:12;;;;;;;3.67;2.17;;;20.70;99.90;;;;;;4178296;28;20142;-62
2023/07/14 04:30:13;;;;;;;3.92;2.40;;;20.80;99.90;;;;;;4170584;28;20095;-73
2023/07/14 04:32:14;;;;;;;3.65;2.15;;;20.80;99.90;;;;;;4170852;28;20442;-63
2023/07/14 04:34:15;;;;;;;5.45;2.22;;;20.80;99.90;;;;;;4176216;28;20131;-62
2023/07/14 04:36:18;;;;;;;3.55;2.08;;;20.90;99.90;;;;;;4178918;28;20032;-60
2023/07/14 04:38:20;;;;;;;7.88;2.38;;;21.00;99.90;;;;;;4176913;28;20041;-61
2023/07/14 04:40:21;;;;;;;4.30;2.00;;;21.00;99.90;;;;;;4177991;28;20098;-63
2023/07/14 04:42:22;;;;;;;5.65;2.88;;;21.10;99.90;;;;;;4177984;28;20048;-62
2023/07/14 04:44:24;;;;;;;3.45;2.08;;;21.20;99.90;;;;;;4176623;28;20369;-61
2023/07/14 04:46:25;;;;;;;2.40;1.88;;;21.20;99.90;;;;;;4173115;28;20048;-58
2023/07/14 04:48:26;;;;;;;5.75;2.00;;;21.20;99.90;;;;;;4175158;28;20029;-57
2023/07/14 04:50:27;;;;;;;5.30;2.05;;;21.40;99.90;;;;;;4173371;28;20075;-61
2023/07/14 04:52:29;;;;;;;2.85;1.98;;;21.40;99.90;;;;;;4178584;28;20028;-60
2023/07/14 04:54:30;;;;;;;3.20;1.90;;;21.50;99.90;;;;;;4178421;28;20722;-61
2023/07/14 04:56:33;;;;;;;4.40;2.33;;;21.60;99.90;;;;;;4176963;28;20059;-61
2023/07/14 04:58:35;;;;;;;3.55;2.40;;;21.70;99.90;;;;;;4177802;28;20041;-60
2023/07/14 05:00:38;;;;;;;3.20;2.10;;;22.10;99.90;;;;;;4177798;28;20044;-61
2023/07/14 05:02:39;;;;;;;4.30;2.30;;;22.10;99.90;;;;;;4178573;28;20078;-61
2023/07/14 05:04:44;;;;;;;3.63;2.40;;;22.20;99.90;;;;;;4177039;28;20366;-61
2023/07/14 05:06:45;;;;;;;3.78;2.13;;;22.20;99.90;;;;;;4178575;28;20040;-61
2023/07/14 05:08:46;;;;;;;5.25;3.15;;;22.20;99.90;;;;;;4176377;28;20116;-61
2023/07/14 05:10:47;;;;;;;2.35;2.15;;;22.20;99.90;;;;;;4178014;28;20423;-63
2023/07/14 05:12:56;;;;;;;3.60;2.42;;;22.10;99.90;;;;;;4177469;28;20067;-59
2023/07/14 05:15:02;;;;;;;8.02;2.95;;;22.10;99.90;;;;;;4178396;28;20029;-62
2023/07/14 05:17:04;;;;;;;3.53;2.03;;;22.10;99.90;;;;;;4176577;28;20082;-67
2023/07/14 05:19:05;;;;;;;4.20;2.63;;;22.10;99.90;;;;;;4177530;28;20098;-61
2023/07/14 05:21:06;;;;;;;5.65;2.35;;;22.10;99.90;;;;;;4176869;28;20025;-60
2023/07/14 05:23:10;;;;;;;2.90;2.10;;;22.20;99.90;;;;;;4178213;28;20033;-60
2023/07/14 05:25:13;;;;;;;3.70;2.03;;;22.30;99.90;;;;;;4177476;28;20029;-61
2023/07/14 05:27:15;;;;;;;2.65;1.92;;;22.30;99.90;;;;;;4177210;28;20045;-60
2023/07/14 05:29:16;;;;;;;5.70;2.95;;;22.30;99.90;;;;;;4176470;28;20025;-60
2023/07/14 05:31:18;;;;;;;4.70;2.78;;;22.50;99.90;;;;;;4177116;28;20033;-58
2023/07/14 05:33:20;;;;;;;9.15;3.15;;;22.80;99.90;;;;;;4176379;28;20090;-65
2023/07/14 05:35:21;;;;;;;6.50;2.88;;;23.00;99.90;;;;;;4177094;28;20033;-58
2023/07/14 05:37:22;;;;;;;5.07;2.22;;;23.40;99.90;;;;;;4177693;28;20040;-63
2023/07/14 05:39:25;;;;;;;2.30;1.88;;;23.70;99.90;;;;;;4176657;28;20473;-61
2023/07/14 05:41:26;;;;;;;3.88;1.70;;;23.80;99.90;;;;;;4177328;28;20045;-62
2023/07/14 05:43:27;;;;;;;2.72;1.60;;;23.80;99.90;;;;;;4175880;28;20045;-60
2023/07/14 05:45:28;;;;;;;2.08;1.27;;;23.80;99.90;;;;;;4177905;28;20083;-61
2023/07/14 05:47:30;;;;;;;3.72;1.77;;;23.70;99.90;;;;;;4176664;28;20025;-61
2023/07/14 05:49:32;;;;;;;1.40;1.23;;;23.90;99.90;;;;;;4176326;28;20053;-61
2023/07/14 05:51:33;;;;;;;46.75;18.90;;;24.00;99.90;;;;;;4176574;28;20025;-55
2023/07/14 05:53:34;;;;;;;3.40;1.33;;;24.10;99.90;;;;;;4177056;28;20045;-62
2023/07/14 05:55:35;;;;;;;2.70;1.40;;;24.40;99.90;;;;;;4175922;28;20040;-62
2023/07/14 05:57:37;;;;;;;2.90;1.27;;;24.90;99.90;;;;;;4177578;28;20102;-60
2023/07/14 05:59:38;;;;;;;1.88;1.20;;;25.10;99.90;;;;;;4176192;28;20053;-62
2023/07/14 06:01:39;;;;;;;4.25;2.05;;;25.00;99.90;;;;;;4177395;28;20082;-60
2023/07/14 06:03:41;;;;;;;2.22;1.52;;;25.10;99.90;;;;;;4176170;28;20025;-61
2023/07/14 06:05:43;;;;;;;4.82;1.30;;;25.50;99.90;;;;;;4177104;28;20095;-65
2023/07/14 06:07:44;;;;;;;1.38;1.27;;;26.10;99.90;;;;;;4177276;28;20070;-60
2023/07/14 06:09:45;;;;;;;1.42;0.98;;;26.30;99.90;;;;;;4176684;28;20070;-63
2023/07/14 06:11:46;;;;;;;1.23;1.10;;;26.50;99.90;;;;;;4177507;28;20367;-61
2023/07/14 06:13:47;;;;;;;1.20;1.00;;;27.00;99.90;;;;;;4175705;28;20037;-63
2023/07/14 06:15:50;;;;;;;2.50;0.82;;;27.30;99.90;;;;;;4177565;28;20025;-62
2023/07/14 06:17:51;;;;;;;1.45;0.98;;;28.00;99.90;;;;;;4175764;28;20029;-62
2023/07/14 06:19:53;;;;;;;1.10;0.80;;;28.40;99.90;;;;;;4176518;28;20041;-61
2023/07/14 06:21:54;;;;;;;1.70;0.80;;;28.30;99.90;;;;;;4176429;28;20033;-62
2023/07/14 06:23:56;;;;;;;22.88;3.65;;;28.50;99.90;;;;;;4177634;28;20355;-62
2023/07/14 06:25:57;;;;;;;2.63;1.10;;;28.30;99.90;;;;;;4158457;28;20107;-62
2023/07/14 06:27:59;;;;;;;3.05;1.60;;;28.20;99.90;;;;;;4159280;28;20038;-63
2023/07/14 06:30:01;;;;;;;16.10;2.60;;;28.10;99.90;;;;;;4157685;28;20042;-61
2023/07/14 06:32:02;;;;;;;18.35;3.08;;;28.10;99.90;;;;;;4177116;28;20029;-62
2023/07/14 06:34:03;;;;;;;3.53;1.08;;;27.80;99.90;;;;;;4176077;28;20057;-61
2023/07/14 06:36:05;;;;;;;2.08;1.48;;;27.90;99.90;;;;;;4176744;28;20131;-65
2023/07/14 06:38:08;;;;;;;4.82;1.45;;;28.40;99.90;;;;;;4176748;28;20433;-64
2023/07/14 06:40:10;;;;;;;6.28;1.98;;;28.40;99.90;;;;;;4158060;28;20041;-66
2023/07/14 06:42:11;;;;;;;2.35;1.30;;;28.80;99.90;;;;;;4179323;28;20404;-63
2023/07/14 06:44:13;;;;;;;3.13;1.35;;;29.10;99.90;;;;;;4178623;28;20049;-61
2023/07/14 06:46:14;;;;;;;3.33;0.98;;;29.20;99.90;;;;;;4180291;28;20033;-62
2023/07/14 06:48:16;;;;;;;3.35;1.00;;;29.20;99.90;;;;;;4178681;28;20083;-63
2023/07/14 06:50:17;;;;;;;5.80;1.00;;;29.30;99.90;;;;;;4180488;28;20449;-61
2023/07/14 06:52:18;;;;;;;1.70;0.95;;;29.10;99.90;;;;;;4178487;28;20102;-66
2023/07/14 06:54:19;;;;;;;3.22;1.20;;;29.00;99.90;;;;;;4180949;28;20044;-60
2023/07/14 06:56:20;;;;;;;1.73;0.82;;;28.80;99.90;;;;;;4179624;28;20440;-64
2023/07/14 06:58:22;;;;;;;1.88;0.98;;;28.70;99.90;;;;;;4180581;28;20104;-67
2023/07/14 07:00:24;;;;;;;1.55;1.20;;;29.00;99.90;;;;;;4179286;28;20083;-70
2023/07/14 07:02:26;;;;;;;3.67;0.95;;;29.20;99.90;;;;;;4179668;28;20103;-69
2023/07/14 07:04:27;;;;;;;8.73;1.80;;;28.80;99.90;;;;;;4160927;28;20025;-62
2023/07/14 07:06:28;;;;;;;4.05;0.90;;;28.80;99.90;;;;;;4180056;28;20083;-64
2023/07/14 07:08:29;;;;;;;17.27;2.20;;;29.10;99.90;;;;;;4179683;28;20079;-62
2023/07/14 07:10:33;;;;;;;10.65;1.58;;;29.60;99.90;;;;;;4179432;28;20037;-63
2023/07/14 07:12:34;;;;;;;2.45;1.00;;;29.50;99.90;;;;;;4179864;28;20029;-60
2023/07/14 07:14:36;;;;;;;1.05;0.45;;;29.50;99.90;;;;;;4179049;28;20130;-63
2023/07/14 07:16:37;;;;;;;0.73;0.60;;;29.30;99.90;;;;;;4180108;28;20535;-71
2023/07/14 07:18:38;;;;;;;1.27;0.43;;;29.00;99.50;;;;;;4178469;28;20025;-61
2023/07/14 07:20:42;;;;;;;0.85;0.63;;;29.00;99.40;;;;;;4180206;28;20555;-62
2023/07/14 07:22:45;;;;;;;0.70;0.40;;;28.70;98.70;;;;;;4178117;28;20091;-61
2023/07/14 07:24:46;;;;;;;1.17;0.82;;;28.60;99.00;;;;;;4179831;28;20478;-61
2023/07/14 07:26:47;;;;;;;0.73;0.70;;;28.60;99.10;;;;;;4178927;28;20063;-62
2023/07/14 07:28:48;;;;;;;3.28;0.77;;;28.70;98.90;;;;;;4180028;28;20029;-62
2023/07/14 07:30:50;;;;;;;1.83;0.77;;;28.60;98.30;;;;;;4178797;28;20119;-61
2023/07/14 07:32:52;;;;;;;0.70;0.70;;;28.50;98.20;;;;;;4179218;28;20025;-62
2023/07/14 07:34:53;;;;;;;1.65;0.65;;;28.40;98.10;;;;;;4178610;28;20044;-62
2023/07/14 07:36:54;;;;;;;1.25;0.60;;;28.50;98.20;;;;;;4179446;28;20025;-68
2023/07/14 07:38:56;;;;;;;5.35;1.98;;;28.60;98.20;;;;;;4178525;28;20033;-64
2023/07/14 07:40:59;;;;;;;10.73;2.13;;;28.70;98.10;;;;;;4179081;28;20371;-62
2023/07/14 07:43:01;;;;;;;2.25;1.02;;;28.70;98.00;;;;;;4177924;28;20436;-65
2023/07/14 07:45:02;;;;;;;2.47;0.80;;;28.80;97.90;;;;;;4178583;28;20433;-63
2023/07/14 07:47:04;;;;;;;7.30;2.67;;;28.80;97.80;;;;;;4178493;28;20451;-64
2023/07/14 07:49:05;;;;;;;1.55;0.90;;;28.90;97.80;;;;;;4177454;28;20091;-63
2023/07/14 07:51:06;;;;;;;29.35;10.38;;;28.60;98.00;;;;;;4179112;28;20041;-65
2023/07/14 07:53:07;;;;;;;3.30;1.30;;;28.20;98.40;;;;;;4178213;28;20145;-62
2023/07/14 07:55:09;;;;;;;46.67;7.07;;;28.10;98.20;;;;;;4179886;28;20401;-63
2023/07/14 07:57:10;;;;;;;25.15;3.08;;;27.80;98.50;;;;;;4178121;28;20630;-62
2023/07/14 07:59:15;;;;;;;12.25;2.67;;;27.80;98.60;;;;;;4178577;28;20466;-62
2023/07/14 08:01:23;;;;;;;2.55;1.30;;;27.80;98.30;;;;;;4177693;28;20033;-62
2023/07/14 08:03:24;;;;;;;3.88;1.38;;;27.70;98.80;;;;;;4178670;28;20052;-63
2023/07/14 08:05:25;;;;;;;1.48;0.95;;;27.50;99.00;;;;;;4178103;28;20106;-61
2023/07/14 08:07:27;;;;;;;2.13;1.00;;;27.50;99.40;;;;;;4179040;28;20098;-63
2023/07/14 08:09:28;;;;;;;3.15;1.10;;;27.50;99.20;;;;;;4177137;28;20033;-62
2023/07/14 08:11:30;;;;;;;1.55;0.90;;;27.70;99.20;;;;;;4177900;28;20559;-62
2023/07/14 08:13:31;;;;;;;1.55;1.00;;;27.90;99.00;;;;;;4178282;28;20021;-69
2023/07/14 08:15:32;;;;;;;3.13;1.35;;;28.20;98.70;;;;;;4177369;28;20321;-61
2023/07/14 08:17:34;;;;;;;5.22;1.70;;;28.40;98.80;;;;;;4177969;28;20090;-59
2023/07/14 08:19:36;;;;;;;3.63;1.48;;;28.30;98.70;;;;;;4178354;28;20017;-61
2023/07/14 08:21:40;;;;;;;2.33;1.00;;;28.30;98.70;;;;;;4178818;28;20033;-61
2023/07/14 08:23:41;;;;;;;1.02;0.90;;;28.00;98.60;;;;;;4177856;28;20083;-62
2023/07/14 08:25:42;;;;;;;1.05;0.80;;;27.70;98.60;;;;;;4178141;28;20041;-61
2023/07/14 08:27:43;;;;;;;5.03;1.92;;;27.80;98.70;;;;;;4177769;28;20033;-63
2023/07/14 08:29:44;;;;;;;1.27;0.75;;;27.70;98.80;;;;;;4178931;28;21195;-58
2023/07/14 08:31:46;;;;;;;4.20;0.90;;;27.70;98.50;;;;;;4177221;28;20044;-60
2023/07/14 08:33:49;;;;;;;1.52;0.85;;;27.70;98.50;;;;;;4178667;28;20095;-60
2023/07/14 08:35:52;;;;;;;1.20;0.95;;;27.60;98.80;;;;;;4177191;28;20044;-61
2023/07/14 08:37:53;;;;;;;3.20;0.70;;;27.70;99.10;;;;;;4178855;28;20029;-61
2023/07/14 08:39:54;;;;;;;2.60;0.95;;;27.60;99.00;;;;;;4176244;28;20508;-61
2023/07/14 08:42:04;;;;;;;6.07;1.48;;;27.70;99.00;;;;;;4177437;28;20550;-61
2023/07/14 08:44:23;;;;;;;5.22;1.70;;;27.60;99.20;;;;;;4177424;28;20037;-61
2023/07/14 08:46:49;;;;;;;1.17;0.85;;;27.60;98.60;;;;;;4178105;28;20030;-62
2023/07/14 08:49:05;;;;;;;34.28;5.00;;;27.80;98.40;;;;;;4177499;28;20033;-62
2023/07/14 08:51:20;;;;;;;29.63;5.07;;;28.00;99.00;;;;;;4178567;28;20366;-62
2023/07/14 08:53:31;;;;;;;6.88;1.30;;;28.10;98.20;;;;;;4177310;28;20504;-62
2023/07/14 08:55:37;;;;;;;3.03;1.05;;;28.00;98.60;;;;;;4178844;28;20052;-62
2023/07/14 08:58:10;;;;;;;2.35;1.23;;;28.00;98.40;;;;;;4176922;28;20041;-63
2023/07/14 09:00:41;;;;;;;3.22;1.10;;;27.80;98.30;;;;;;4171961;28;20057;-61
2023/07/14 09:02:55;;;;;;;25.63;4.47;;;27.70;98.60;;;;;;4145533;28;20102;-61
2023/07/14 09:05:03;;;;;;;8.82;2.08;;;27.40;98.50;;;;;;4159606;28;20079;-61
2023/07/14 09:07:16;;;;;;;1.40;1.02;;;27.20;98.70;;;;;;4177154;28;20025;-61
2023/07/14 09:09:29;;;;;;;3.63;1.17;;;27.00;99.00;;;;;;4176972;28;20048;-60
2023/07/14 09:11:36;;;;;;;1.60;1.10;;;27.00;99.10;;;;;;4177255;28;20052;-59
2023/07/14 09:13:49;;;;;;;15.48;3.03;;;27.20;99.00;;;;;;4177898;28;20090;-61
2023/07/14 09:15:51;;;;;;;6.82;1.50;;;27.40;99.20;;;;;;4176660;28;20374;-60
2023/07/14 09:18:10;;;;;;;2.45;1.05;;;27.60;99.10;;;;;;4177846;28;20021;-60
2023/07/14 09:20:26;;;;;;;43.03;6.38;;;27.60;98.70;;;;;;4177138;28;20374;-61
2023/07/14 09:22:33;;;;;;;4.45;1.40;;;27.80;98.60;;;;;;4177405;28;20407;-59
2023/07/14 09:24:45;;;;;;;7.30;1.10;;;27.90;98.50;;;;;;4177215;28;20177;-60
2023/07/14 09:26:52;;;;;;;2.55;0.75;;;27.90;98.40;;;;;;4177257;28;20102;-64
2023/07/14 09:28:56;;;;;;;2.13;1.30;;;28.00;98.20;;;;;;4177070;28;20025;-68
2023/07/14 09:31:01;;;;;;;1.83;1.50;;;28.00;98.10;;;;;;4177071;28;20098;-61
2023/07/14 09:33:04;;;;;;;2.35;1.30;;;28.00;98.10;;;;;;4175835;28;20037;-64
2023/07/14 09:35:25;;;;;;;3.95;1.33;;;27.80;98.20;;;;;;4177472;28;20053;-60
2023/07/14 09:37:42;;;;;;;2.58;1.17;;;27.80;98.00;;;;;;4175796;28;20033;-62
2023/07/14 09:39:45;;;;;;;5.75;1.15;;;27.90;98.00;;;;;;4177015;28;20036;-61
2023/07/14 09:41:48;;;;;;;4.88;1.20;;;28.00;98.20;;;;;;4176580;28;20048;-61
2023/07/14 09:43:49;;;;;;;1.58;0.70;;;27.70;98.10;;;;;;4176850;28;20555;-61
2023/07/14 09:45:54;;;;;;;1.58;0.85;;;27.70;98.10;;;;;;4176021;28;20614;-60
2023/07/14 09:48:01;;;;;;;5.00;1.27;;;27.90;97.90;;;;;;4177554;28;20099;-62
2023/07/14 09:50:02;;;;;;;3.95;1.10;;;28.00;97.80;;;;;;4175591;28;20087;-65
2023/07/14 09:52:47;;;;;;;4.90;1.35;;;28.10;97.90;;;;;;4177446;28;20051;-61
2023/07/14 09:54:52;;;;;;;3.70;1.38;;;28.30;97.50;;;;;;4167107;28;20033;-61
2023/07/14 09:57:01;;;;;;;8.02;3.03;;;28.30;97.40;;;;;;4177151;28;20029;-61
2023/07/14 09:59:05;;;;;;;2.63;1.05;;;28.30;97.30;;;;;;4176311;28;20095;-62
2023/07/14 10:01:13;;;;;;;1.77;1.30;;;27.90;97.00;;;;;;4176023;28;20110;-63
2023/07/14 10:03:17;;;;;;;2.95;1.52;;;27.70;97.60;;;;;;4176447;28;20021;-61
2023/07/14 10:05:24;;;;;;;2.22;1.15;;;27.80;97.80;;;;;;4176083;28;20040;-60
2023/07/14 10:07:25;;;;;;;3.97;1.33;;;27.90;97.80;;;;;;4175349;28;20440;-62
2023/07/14 10:09:27;;;;;;;31.35;4.45;;;27.60;98.30;;;;;;4177462;28;20086;-61
2023/07/14 10:11:38;;;;;;;13.70;2.10;;;27.10;98.40;;;;;;4176329;28;20079;-62
2023/07/14 10:13:40;;;;;;;6.88;1.40;;;26.90;98.40;;;;;;4177597;28;20037;-63
2023/07/14 10:15:51;;;;;;;3.10;1.25;;;27.10;98.60;;;;;;4175868;28;20079;-61
2023/07/14 10:17:54;;;;;;;14.90;3.97;;;27.30;98.50;;;;;;4191863;28;20102;-61
2023/07/14 10:19:56;;;;;;;5.60;1.77;;;27.30;98.10;;;;;;4176205;28;20169;-62
2023/07/14 10:22:04;;;;;;;2.25;1.08;;;27.10;98.20;;;;;;4177184;28;20064;-60
2023/07/14 10:24:15;;;;;;;11.35;2.47;;;27.00;98.40;;;;;;4176233;28;20033;-61
2023/07/14 10:26:16;;;;;;;12.55;2.85;;;26.90;98.60;;;;;;4177657;28;20083;-62
2023/07/14 10:28:23;;;;;;;1.40;1.00;;;26.90;98.90;;;;;;4176240;28;20033;-61
2023/07/14 10:31:01;;;;;;;2.55;1.63;;;27.10;98.40;;;;;;4176919;28;20110;-60
2023/07/14 10:33:09;;;;;;;6.75;1.30;;;27.40;97.90;;;;;;4175443;28;20075;-61
2023/07/14 10:35:39;;;;;;;8.60;2.38;;;27.50;98.10;;;;;;4177095;28;20343;-62
2023/07/14 10:37:54;;;;;;;13.50;3.00;;;27.50;98.00;;;;;;4175275;28;20575;-60
2023/07/14 10:40:04;;;;;;;2.80;1.60;;;27.20;98.60;;;;;;4177346;28;20083;-59
2023/07/14 10:42:15;;;;;;;6.63;1.60;;;26.90;98.60;;;;;;4175636;28;20074;-60
2023/07/14 10:44:30;;;;;;;4.38;1.40;;;26.70;99.00;;;;;;4177201;28;20047;-61
2023/07/14 10:46:46;;;;;;;2.58;1.50;;;26.90;99.10;;;;;;4175128;28;20102;-62